Time;durP1;ratioP1;P1;durP2;ratioP2;P2;SDS_P1;SDS_P2;PMS_P1;PMS_P2;Temp;Humidity;BMP_temperature;BMP_pressure;BME280_temperature;BME280_humidity;BME280_pressure;Samples;Min_cycle;Max_cycle;Signal;HPM_P1;HPM_P2
2023/09/12 00:01:47;;;;;;;9.77;8.00;;;18.90;99.90;;;;;;6246818;28;20048;-79
2023/09/12 00:04:50;;;;;;;11.30;7.72;;;18.80;99.90;;;;;;6247182;28;20072;-78
2023/09/12 00:07:53;;;;;;;11.48;7.97;;;18.70;99.90;;;;;;6247117;28;20047;-78
2023/09/12 00:11:06;;;;;;;9.15;7.72;;;18.70;99.90;;;;;;6246379;28;20056;-78
2023/09/12 00:14:10;;;;;;;8.68;7.78;;;18.80;99.90;;;;;;6247725;28;20041;-77
2023/09/12 00:17:12;;;;;;;8.80;7.47;;;18.70;99.90;;;;;;6247195;28;20045;-77
2023/09/12 00:20:15;;;;;;;9.00;7.82;;;18.70;99.90;;;;;;6247018;28;20514;-78
2023/09/12 00:23:17;;;;;;;10.68;7.00;;;18.70;99.90;;;;;;6247035;28;20053;-79
2023/09/12 00:26:18;;;;;;;7.88;6.40;;;18.60;99.90;;;;;;6246733;28;20395;-78
2023/09/12 00:29:20;;;;;;;7.43;6.25;;;18.60;99.90;;;;;;6246153;28;20509;-78
2023/09/12 00:32:22;;;;;;;10.13;7.45;;;18.60;99.90;;;;;;6246297;28;20053;-78
2023/09/12 00:35:25;;;;;;;15.43;8.52;;;18.40;99.90;;;;;;6247064;28;20054;-78
2023/09/12 00:38:26;;;;;;;7.97;7.05;;;18.40;99.90;;;;;;6246640;28;20041;-78
2023/09/12 00:41:28;;;;;;;11.40;8.93;;;18.30;99.90;;;;;;6243794;28;20048;-78
2023/09/12 00:44:30;;;;;;;11.10;7.03;;;18.30;99.90;;;;;;6246499;28;20046;-78
2023/09/12 00:47:32;;;;;;;12.98;7.65;;;18.40;99.90;;;;;;6246289;28;20421;-78
2023/09/12 00:50:36;;;;;;;8.57;7.72;;;18.40;99.90;;;;;;6246095;28;20045;-77
2023/09/12 00:53:37;;;;;;;10.50;6.78;;;18.40;99.90;;;;;;6245943;28;20052;-78
2023/09/12 00:56:39;;;;;;;10.60;6.70;;;18.40;99.90;;;;;;6246331;28;20056;-77
2023/09/12 00:59:41;;;;;;;8.73;7.75;;;18.30;99.90;;;;;;6246333;28;20041;-77
2023/09/12 01:02:46;;;;;;;9.15;7.30;;;18.30;99.90;;;;;;6245108;28;20064;-78
2023/09/12 01:05:49;;;;;;;8.75;6.53;;;18.30;99.90;;;;;;6245466;28;20045;-78
2023/09/12 01:08:51;;;;;;;15.48;8.60;;;18.30;99.90;;;;;;6245283;28;20046;-77
2023/09/12 01:11:52;;;;;;;8.18;6.38;;;18.30;99.90;;;;;;6247221;28;20053;-76
2023/09/12 01:14:54;;;;;;;8.50;7.63;;;18.30;99.90;;;;;;6247060;28;20398;-77
2023/09/12 01:17:57;;;;;;;9.68;6.63;;;18.20;99.90;;;;;;6247513;28;20049;-77
2023/09/12 01:21:27;;;;;;;11.35;7.55;;;18.20;99.90;;;;;;6247699;28;20060;-77
2023/09/12 01:24:53;;;;;;;9.55;6.78;;;18.20;99.90;;;;;;6241097;28;20045;-76
2023/09/12 01:27:59;;;;;;;11.02;9.25;;;18.20;99.90;;;;;;6245519;28;20399;-77
2023/09/12 01:31:02;;;;;;;10.90;6.93;;;18.10;99.90;;;;;;6245477;28;20056;-77
2023/09/12 01:34:10;;;;;;;8.65;7.80;;;18.10;99.90;;;;;;6245242;28;20045;-77
2023/09/12 01:37:11;;;;;;;10.20;6.72;;;18.10;99.90;;;;;;6246201;28;20048;-77
2023/09/12 01:40:15;;;;;;;8.32;6.05;;;18.10;99.90;;;;;;6245911;28;20049;-78
2023/09/12 01:43:21;;;;;;;8.48;7.10;;;18.10;99.90;;;;;;6245032;28;20064;-78
2023/09/12 01:46:24;;;;;;;8.55;7.57;;;18.10;99.90;;;;;;6238425;28;20056;-78
2023/09/12 01:49:28;;;;;;;7.95;7.15;;;18.10;99.90;;;;;;6245080;28;20755;-78
2023/09/12 01:52:31;;;;;;;11.43;8.00;;;18.10;99.90;;;;;;6245059;28;20498;-78
2023/09/12 01:55:33;;;;;;;11.93;8.00;;;18.00;99.90;;;;;;6246388;28;20060;-77
2023/09/12 01:58:36;;;;;;;8.50;6.20;;;18.00;99.90;;;;;;6244989;28;20048;-78
2023/09/12 02:01:38;;;;;;;8.50;7.00;;;18.00;99.90;;;;;;6245216;28;20041;-77
2023/09/12 02:04:40;;;;;;;8.02;7.13;;;18.00;99.90;;;;;;6245839;28;20045;-77
2023/09/12 02:07:43;;;;;;;7.53;6.82;;;17.90;99.90;;;;;;6247051;28;20041;-78
2023/09/12 02:10:44;;;;;;;9.63;6.93;;;17.90;99.90;;;;;;6245063;28;20525;-79
2023/09/12 02:13:47;;;;;;;7.07;6.38;;;17.80;99.90;;;;;;6244960;28;20096;-78
2023/09/12 02:16:49;;;;;;;13.52;7.97;;;17.90;99.90;;;;;;6244655;28;20044;-78
2023/09/12 02:19:51;;;;;;;8.98;7.05;;;18.00;99.90;;;;;;6245384;28;20156;-77
2023/09/12 02:22:52;;;;;;;10.18;8.60;;;18.00;99.90;;;;;;6251300;28;20482;-78
2023/09/12 02:25:54;;;;;;;10.02;6.70;;;17.90;99.90;;;;;;6251542;28;20080;-78
2023/09/12 02:28:57;;;;;;;14.73;8.25;;;17.90;99.90;;;;;;6250525;28;20053;-78
2023/09/12 02:31:59;;;;;;;9.93;7.25;;;17.90;99.90;;;;;;6249570;28;20053;-77
2023/09/12 02:35:01;;;;;;;12.95;7.25;;;17.90;99.90;;;;;;6247882;28;20109;-77
2023/09/12 02:38:02;;;;;;;10.43;6.88;;;18.00;99.90;;;;;;6249655;28;20045;-78
2023/09/12 02:41:04;;;;;;;10.75;8.45;;;17.90;99.90;;;;;;6249562;28;20422;-78
2023/09/12 02:44:07;;;;;;;9.05;7.82;;;17.90;99.90;;;;;;6249753;28;20041;-78
2023/09/12 02:47:09;;;;;;;10.13;7.43;;;17.90;99.90;;;;;;6251006;28;20128;-78
2023/09/12 02:50:11;;;;;;;8.05;6.68;;;17.90;99.90;;;;;;6250537;28;20394;-78
2023/09/12 02:53:13;;;;;;;9.63;7.53;;;17.80;99.90;;;;;;6249158;28;20123;-78
2023/09/12 02:56:14;;;;;;;10.90;6.32;;;17.80;99.90;;;;;;6248895;28;20056;-77
2023/09/12 02:59:17;;;;;;;8.48;7.57;;;17.80;99.90;;;;;;6250004;28;20061;-77
2023/09/12 03:02:19;;;;;;;11.00;7.07;;;17.80;99.90;;;;;;6249139;28;20049;-77
2023/09/12 03:05:22;;;;;;;11.73;7.45;;;17.80;99.90;;;;;;6250245;28;20192;-78
2023/09/12 03:08:23;;;;;;;9.55;6.88;;;17.70;99.90;;;;;;6250536;28;20125;-77
2023/09/12 03:11:27;;;;;;;10.57;7.47;;;17.70;99.90;;;;;;6249782;28;20056;-78
2023/09/12 03:14:30;;;;;;;11.38;7.68;;;17.70;99.90;;;;;;6250130;28;20049;-77
2023/09/12 03:17:33;;;;;;;10.50;7.50;;;17.70;99.90;;;;;;6249022;28;20057;-78
2023/09/12 03:20:38;;;;;;;8.95;7.53;;;17.60;99.90;;;;;;6248912;28;20049;-77
2023/09/12 03:23:39;;;;;;;8.77;6.13;;;17.60;99.90;;;;;;6248467;28;20053;-78
2023/09/12 03:26:41;;;;;;;9.80;7.40;;;17.60;99.90;;;;;;6248367;28;20037;-77
2023/09/12 03:29:47;;;;;;;15.02;8.43;;;17.60;99.90;;;;;;6248083;28;20480;-78
2023/09/12 03:32:49;;;;;;;8.73;6.32;;;17.60;99.90;;;;;;6247155;28;20041;-78
2023/09/12 03:35:51;;;;;;;12.55;6.30;;;17.60;99.90;;;;;;6249721;28;20486;-76
2023/09/12 03:38:52;;;;;;;10.43;7.60;;;17.60;99.90;;;;;;6251001;28;20045;-78
2023/09/12 03:41:54;;;;;;;9.68;7.22;;;17.70;99.90;;;;;;6251059;28;20056;-79
2023/09/12 03:44:57;;;;;;;12.27;8.07;;;17.70;99.90;;;;;;6251475;28;20042;-77
2023/09/12 03:47:59;;;;;;;9.10;6.85;;;17.70;99.90;;;;;;6250832;28;20041;-78
2023/09/12 03:51:01;;;;;;;9.60;6.88;;;17.80;99.90;;;;;;6248801;28;20053;-77
2023/09/12 03:54:02;;;;;;;9.07;8.05;;;17.90;99.90;;;;;;6247517;28;20165;-77
2023/09/12 03:57:05;;;;;;;8.27;6.65;;;17.90;99.90;;;;;;6247467;28;20049;-78
2023/09/12 04:00:09;;;;;;;8.48;7.57;;;17.90;99.90;;;;;;6247665;28;20045;-78
2023/09/12 04:03:11;;;;;;;8.32;7.35;;;17.90;99.90;;;;;;6247386;28;20509;-78
2023/09/12 04:06:12;;;;;;;11.63;8.38;;;17.90;99.90;;;;;;6247382;28;20046;-78
2023/09/12 04:09:14;;;;;;;9.13;7.20;;;17.90;99.90;;;;;;6246591;28;20060;-78
2023/09/12 04:12:16;;;;;;;7.93;7.13;;;17.90;99.90;;;;;;6246654;28;20086;-78
2023/09/12 04:15:19;;;;;;;10.57;8.25;;;17.90;99.90;;;;;;6250247;28;20045;-78
2023/09/12 04:18:20;;;;;;;7.90;6.05;;;17.90;99.90;;;;;;6250230;28;20053;-78
2023/09/12 04:21:22;;;;;;;11.35;8.82;;;18.00;99.90;;;;;;6249357;28;20049;-78
2023/09/12 04:24:24;;;;;;;10.15;6.53;;;18.00;99.90;;;;;;6247501;28;20052;-78
2023/09/12 04:27:25;;;;;;;8.30;7.50;;;18.00;99.90;;;;;;6249468;28;20414;-77
2023/09/12 04:30:29;;;;;;;10.52;6.85;;;18.00;99.90;;;;;;6249686;28;20046;-79
2023/09/12 04:33:30;;;;;;;10.10;7.07;;;18.00;99.90;;;;;;6249146;28;20446;-78
2023/09/12 04:36:33;;;;;;;13.20;6.80;;;18.10;99.90;;;;;;6249270;28;20049;-79
2023/09/12 04:39:35;;;;;;;9.27;6.72;;;18.10;99.90;;;;;;6250063;28;20046;-77
2023/09/12 04:42:36;;;;;;;10.95;7.85;;;18.10;99.90;;;;;;6248760;28;20049;-79
2023/09/12 04:45:40;;;;;;;8.32;7.15;;;18.10;99.90;;;;;;6248305;28;20053;-78
2023/09/12 04:48:43;;;;;;;7.70;6.85;;;18.10;99.90;;;;;;6249310;28;20045;-78
2023/09/12 04:51:45;;;;;;;11.13;8.43;;;18.10;99.90;;;;;;6249192;28;20053;-78
2023/09/12 04:54:46;;;;;;;8.90;7.10;;;18.10;99.90;;;;;;6249012;28;20054;-78
2023/09/12 04:57:48;;;;;;;9.23;6.97;;;18.10;99.90;;;;;;6247321;28;20056;-76
2023/09/12 05:00:51;;;;;;;9.98;6.82;;;18.00;99.90;;;;;;6246152;28;20046;-77
2023/09/12 05:03:53;;;;;;;7.10;6.22;;;18.00;99.90;;;;;;6245339;28;20061;-76
2023/09/12 05:06:55;;;;;;;7.60;6.85;;;18.00;99.90;;;;;;6246135;28;20068;-77
2023/09/12 05:09:56;;;;;;;9.35;7.70;;;17.90;99.90;;;;;;6245748;28;20049;-77
2023/09/12 05:12:58;;;;;;;8.88;7.88;;;17.90;99.90;;;;;;6245995;28;20433;-77
2023/09/12 05:16:01;;;;;;;10.65;9.55;;;17.90;99.90;;;;;;6245783;28;20399;-77
2023/09/12 05:19:03;;;;;;;11.93;9.07;;;17.80;99.90;;;;;;6246529;28;20052;-79
2023/09/12 05:22:05;;;;;;;10.52;7.13;;;17.80;99.90;;;;;;6246091;28;20132;-78
2023/09/12 05:25:07;;;;;;;12.25;8.77;;;17.70;99.90;;;;;;6247001;28;20498;-77
2023/09/12 05:28:09;;;;;;;9.27;7.28;;;17.80;99.90;;;;;;6245753;28;20049;-77
2023/09/12 05:31:12;;;;;;;12.23;8.00;;;17.80;99.90;;;;;;6246269;28;20045;-79
2023/09/12 05:34:13;;;;;;;11.55;7.95;;;17.80;99.90;;;;;;6245756;28;20120;-79
2023/09/12 05:37:15;;;;;;;8.90;8.00;;;17.70;99.90;;;;;;6245968;28;20053;-77
2023/09/12 05:40:17;;;;;;;9.15;7.63;;;17.70;99.90;;;;;;6245429;28;20053;-79
2023/09/12 05:43:19;;;;;;;12.70;9.45;;;17.80;99.90;;;;;;6246640;28;20042;-78
2023/09/12 05:46:22;;;;;;;11.70;7.80;;;17.80;99.90;;;;;;6245780;28;20425;-78
2023/09/12 05:49:24;;;;;;;9.95;8.10;;;17.70;99.90;;;;;;6245612;28;20049;-76
2023/09/12 05:52:26;;;;;;;10.52;8.02;;;17.70;99.90;;;;;;6245667;28;20506;-78
2023/09/12 05:55:27;;;;;;;10.52;7.72;;;17.70;99.90;;;;;;6245721;28;20490;-78
2023/09/12 05:58:29;;;;;;;15.75;7.85;;;17.70;99.90;;;;;;6244621;28;20422;-78
2023/09/12 06:01:32;;;;;;;9.60;8.68;;;17.70;99.90;;;;;;6245394;28;20358;-78
2023/09/12 06:04:34;;;;;;;14.00;8.88;;;17.80;99.90;;;;;;6245652;28;20056;-77
2023/09/12 06:07:36;;;;;;;13.90;8.05;;;17.80;99.90;;;;;;6246739;28;20053;-77
2023/09/12 06:10:38;;;;;;;11.25;7.55;;;17.90;99.90;;;;;;6238298;28;20069;-78
2023/09/12 06:13:39;;;;;;;9.35;7.70;;;17.90;99.90;;;;;;6247739;28;20056;-78
2023/09/12 06:16:42;;;;;;;9.05;7.57;;;18.20;99.90;;;;;;6247240;28;20049;-78
2023/09/12 06:19:44;;;;;;;8.50;7.30;;;18.40;99.90;;;;;;6248283;28;20492;-78
2023/09/12 06:22:46;;;;;;;12.52;8.95;;;18.70;99.90;;;;;;6247385;28;20049;-78
2023/09/12 06:25:47;;;;;;;18.48;8.60;;;19.10;99.90;;;;;;6248311;28;20084;-78
2023/09/12 06:28:49;;;;;;;17.80;8.77;;;19.40;99.90;;;;;;6246426;28;20049;-78
2023/09/12 06:31:54;;;;;;;10.32;7.90;;;19.70;99.90;;;;;;6241661;28;20061;-77
2023/09/12 06:34:56;;;;;;;14.73;7.70;;;20.00;99.90;;;;;;6247045;28;20061;-77
2023/09/12 06:37:58;;;;;;;13.65;8.77;;;20.30;99.90;;;;;;6247150;28;20050;-79
2023/09/12 06:40:59;;;;;;;11.93;8.85;;;20.50;99.90;;;;;;6244580;28;20037;-77
2023/09/12 06:44:02;;;;;;;17.10;9.27;;;20.80;99.90;;;;;;6248928;28;20567;-79
2023/09/12 06:47:06;;;;;;;16.83;8.15;;;21.10;99.90;;;;;;6246369;28;20041;-78
2023/09/12 06:50:09;;;;;;;14.25;7.95;;;21.40;99.90;;;;;;6242593;28;20059;-78
2023/09/12 06:53:11;;;;;;;13.70;8.65;;;21.70;99.90;;;;;;6240350;28;20046;-77
2023/09/12 06:56:12;;;;;;;10.35;8.20;;;21.90;99.90;;;;;;6244194;28;20044;-77
2023/09/12 06:59:14;;;;;;;12.90;7.45;;;22.10;99.90;;;;;;6244318;28;20038;-77
2023/09/12 07:02:18;;;;;;;10.20;6.53;;;22.40;99.90;;;;;;6242014;28;20056;-77
2023/09/12 07:05:19;;;;;;;12.10;7.72;;;22.60;99.90;;;;;;6250014;28;20195;-77
2023/09/12 07:08:21;;;;;;;11.93;7.07;;;22.80;99.90;;;;;;6256961;28;20497;-77
2023/09/12 07:11:24;;;;;;;10.93;6.30;;;23.00;99.90;;;;;;6249611;28;20050;-77
2023/09/12 07:14:25;;;;;;;13.75;5.88;;;23.20;99.90;;;;;;6249275;28;20456;-77
2023/09/12 07:17:29;;;;;;;9.68;6.93;;;23.50;99.90;;;;;;6249331;28;20045;-77
2023/09/12 07:20:31;;;;;;;10.38;6.57;;;23.70;99.90;;;;;;6248999;28;20071;-78
2023/09/12 07:23:33;;;;;;;10.65;7.28;;;23.90;99.90;;;;;;6249588;28;20045;-77
2023/09/12 07:26:35;;;;;;;10.45;7.30;;;24.00;99.90;;;;;;6249339;28;20048;-77
2023/09/12 07:29:36;;;;;;;11.07;6.88;;;24.20;99.90;;;;;;6248528;28;20147;-77
2023/09/12 07:32:39;;;;;;;13.88;7.30;;;24.50;99.90;;;;;;6248631;28;20045;-77
2023/09/12 07:35:41;;;;;;;8.80;7.20;;;24.80;99.90;;;;;;6249651;28;20042;-78
2023/09/12 07:38:45;;;;;;;8.63;6.18;;;25.20;99.90;;;;;;6250046;28;20041;-78
2023/09/12 07:41:47;;;;;;;12.15;6.93;;;25.40;99.90;;;;;;6248653;28;20525;-78
2023/09/12 07:44:49;;;;;;;10.52;6.25;;;25.70;99.90;;;;;;6249176;28;20049;-78
2023/09/12 07:47:52;;;;;;;6.95;5.50;;;26.00;99.90;;;;;;6250032;28;20045;-78
2023/09/12 07:50:54;;;;;;;16.35;6.30;;;26.10;99.30;;;;;;6251450;28;20053;-78
2023/09/12 07:53:56;;;;;;;7.68;6.50;;;26.20;98.80;;;;;;6255782;28;20460;-78
2023/09/12 07:56:58;;;;;;;10.82;5.53;;;26.30;98.10;;;;;;6252096;28;20049;-77
2023/09/12 07:59:59;;;;;;;10.68;6.97;;;26.60;98.00;;;;;;6250354;28;20414;-78
2023/09/12 08:03:03;;;;;;;13.35;6.80;;;26.90;97.60;;;;;;6252295;28;20256;-78
2023/09/12 08:06:05;;;;;;;11.80;6.55;;;27.30;96.90;;;;;;6248084;28;20038;-78
2023/09/12 08:09:06;;;;;;;8.88;6.00;;;27.70;96.00;;;;;;6246865;28;20045;-78
2023/09/12 08:12:08;;;;;;;9.18;6.75;;;27.70;94.80;;;;;;6246206;28;20053;-76
2023/09/12 08:15:10;;;;;;;8.43;5.50;;;27.90;94.50;;;;;;6248263;28;20048;-75
2023/09/12 08:18:13;;;;;;;7.80;6.60;;;28.20;93.80;;;;;;6247309;28;20037;-77
2023/09/12 08:21:15;;;;;;;7.60;5.43;;;28.40;92.80;;;;;;6247333;28;20054;-77
2023/09/12 08:24:17;;;;;;;6.72;5.97;;;28.50;92.20;;;;;;6249183;28;20044;-76
2023/09/12 08:27:18;;;;;;;10.05;6.55;;;28.60;91.20;;;;;;6247787;28;20124;-77
2023/09/12 08:30:20;;;;;;;6.75;5.95;;;28.10;90.80;;;;;;6247042;28;20049;-77
2023/09/12 08:33:23;;;;;;;7.45;5.25;;;27.70;90.90;;;;;;6244567;28;20128;-77
2023/09/12 08:36:25;;;;;;;12.70;5.32;;;27.60;90.70;;;;;;6251966;28;20056;-77
2023/09/12 08:39:28;;;;;;;6.32;5.03;;;27.60;90.60;;;;;;6246840;28;20057;-78
2023/09/12 08:42:32;;;;;;;6.57;5.80;;;27.50;90.30;;;;;;6245324;28;20041;-78
2023/09/12 08:45:33;;;;;;;9.15;6.38;;;27.30;90.30;;;;;;6247142;28;20510;-78
2023/09/12 08:48:39;;;;;;;7.63;5.60;;;27.20;90.10;;;;;;6246278;28;20055;-78
2023/09/12 08:51:41;;;;;;;7.05;5.43;;;27.20;89.40;;;;;;6246708;28;20055;-78
2023/09/12 08:54:42;;;;;;;8.40;6.03;;;27.10;89.50;;;;;;6246178;28;20053;-77
2023/09/12 08:57:48;;;;;;;10.45;7.47;;;27.00;89.70;;;;;;6246164;28;20045;-77
2023/09/12 09:00:51;;;;;;;11.52;5.93;;;27.20;89.60;;;;;;6238271;28;20172;-78
2023/09/12 09:03:54;;;;;;;8.15;5.97;;;27.40;88.80;;;;;;6245602;28;20045;-77
2023/09/12 09:06:57;;;;;;;14.27;7.30;;;27.70;87.50;;;;;;6245218;28;20053;-77
2023/09/12 09:09:59;;;;;;;7.82;6.15;;;27.80;87.10;;;;;;6245156;28;20437;-77
2023/09/12 09:13:01;;;;;;;9.10;7.38;;;27.90;86.60;;;;;;6245774;28;20050;-77
2023/09/12 09:16:14;;;;;;;6.47;5.57;;;28.10;86.40;;;;;;6245240;28;20498;-78
2023/09/12 09:19:18;;;;;;;19.92;8.85;;;28.00;86.00;;;;;;6247393;28;20068;-77
2023/09/12 09:22:19;;;;;;;14.63;6.50;;;27.80;86.20;;;;;;6246307;28;20522;-78
2023/09/12 09:25:21;;;;;;;10.52;5.65;;;27.90;86.30;;;;;;6246761;28;20463;-78
2023/09/12 09:28:24;;;;;;;8.18;6.88;;;27.80;85.90;;;;;;6247605;28;20513;-77
2023/09/12 09:31:26;;;;;;;10.15;7.13;;;27.70;85.90;;;;;;6246603;28;20045;-78
2023/09/12 09:34:31;;;;;;;7.38;6.45;;;27.70;86.20;;;;;;6247696;28;20045;-78
2023/09/12 09:37:34;;;;;;;6.05;5.30;;;27.80;86.30;;;;;;6246442;28;20041;-77
2023/09/12 09:40:36;;;;;;;7.35;6.32;;;28.20;86.00;;;;;;6247102;28;20052;-77
2023/09/12 09:43:38;;;;;;;8.50;5.35;;;28.80;85.00;;;;;;6249202;28;20052;-79
2023/09/12 09:46:43;;;;;;;8.52;5.85;;;29.50;82.90;;;;;;6249830;28;20060;-79
2023/09/12 09:49:47;;;;;;;7.15;6.30;;;30.10;81.10;;;;;;6249053;28;20046;-78
2023/09/12 09:52:54;;;;;;;8.38;5.50;;;30.50;79.70;;;;;;6247973;28;20105;-79
2023/09/12 09:56:09;;;;;;;7.88;5.65;;;31.10;78.00;;;;;;6249668;28;20049;-79
2023/09/12 09:59:15;;;;;;;8.02;5.03;;;31.70;76.40;;;;;;6248759;28;20073;-78
2023/09/12 10:02:22;;;;;;;7.13;5.63;;;32.10;75.00;;;;;;6245954;28;20528;-78
2023/09/12 10:05:25;;;;;;;6.05;5.45;;;32.50;73.80;;;;;;6248549;28;20133;-78
2023/09/12 10:08:28;;;;;;;12.15;5.70;;;33.00;71.20;;;;;;6243418;28;20391;-78
2023/09/12 10:11:32;;;;;;;6.43;5.57;;;33.00;69.10;;;;;;6245993;28;20046;-77
2023/09/12 10:14:35;;;;;;;6.50;5.82;;;33.20;68.00;;;;;;6247259;28;20041;-79
2023/09/12 10:17:40;;;;;;;9.93;5.43;;;33.10;67.10;;;;;;6247050;28;20075;-79
2023/09/12 10:20:59;;;;;;;10.10;5.35;;;33.00;67.10;;;;;;6245344;28;20042;-79
2023/09/12 10:24:03;;;;;;;8.35;5.68;;;32.90;66.30;;;;;;6246232;28;20060;-79
2023/09/12 10:27:06;;;;;;;8.45;5.45;;;32.90;67.10;;;;;;6247115;28;20053;-79
2023/09/12 10:30:10;;;;;;;7.45;6.28;;;33.40;66.60;;;;;;6244621;28;20042;-78
2023/09/12 10:33:13;;;;;;;11.38;4.97;;;33.90;65.30;;;;;;6241709;28;20058;-82
2023/09/12 10:36:19;;;;;;;6.97;5.60;;;34.00;64.50;;;;;;6239092;28;20053;-79
2023/09/12 10:39:23;;;;;;;5.73;4.57;;;34.40;63.90;;;;;;6242672;28;20490;-78
2023/09/12 10:42:26;;;;;;;10.13;5.53;;;34.80;62.90;;;;;;6244359;28;20619;-79
2023/09/12 10:45:29;;;;;;;6.63;5.97;;;35.00;61.80;;;;;;6248678;28;20041;-80
2023/09/12 10:48:33;;;;;;;9.85;5.60;;;34.90;60.70;;;;;;6249834;28;20053;-78
2023/09/12 10:51:38;;;;;;;7.55;5.35;;;34.80;60.70;;;;;;6249898;28;20061;-79
2023/09/12 10:54:41;;;;;;;9.63;5.53;;;35.00;60.00;;;;;;6249496;28;20045;-79
2023/09/12 10:58:04;;;;;;;6.72;5.65;;;35.20;59.80;;;;;;6249413;28;20041;-77
2023/09/12 11:01:24;;;;;;;8.10;6.28;;;35.50;58.90;;;;;;6249172;28;20057;-78
2023/09/12 11:04:37;;;;;;;5.88;4.20;;;35.70;58.10;;;;;;6248900;28;20049;-77
2023/09/12 11:07:46;;;;;;;10.43;5.32;;;35.80;56.30;;;;;;6248834;28;20104;-76
2023/09/12 11:11:17;;;;;;;5.28;4.70;;;35.60;56.10;;;;;;6248399;28;20049;-78
2023/09/12 11:14:19;;;;;;;6.28;4.75;;;35.50;55.10;;;;;;6247986;28;20052;-77
2023/09/12 11:17:27;;;;;;;9.93;4.70;;;35.40;55.20;;;;;;6244561;28;20045;-77
2023/09/12 11:20:51;;;;;;;7.88;6.03;;;35.20;54.50;;;;;;6248459;28;20111;-76
2023/09/12 11:23:57;;;;;;;8.15;4.50;;;34.90;55.00;;;;;;6249844;28;20046;-78
2023/09/12 11:27:00;;;;;;;5.95;4.70;;;35.00;55.30;;;;;;6248009;28;20099;-77
2023/09/12 11:30:06;;;;;;;5.97;5.18;;;35.20;55.40;;;;;;6249600;28;20041;-77
2023/09/12 11:33:11;;;;;;;11.10;5.65;;;35.70;54.50;;;;;;6249765;28;20061;-76
2023/09/12 11:36:14;;;;;;;7.68;4.38;;;36.20;53.90;;;;;;6249927;28;20045;-78
2023/09/12 11:39:29;;;;;;;6.57;4.50;;;36.10;53.20;;;;;;6248689;28;20491;-76
2023/09/12 11:42:31;;;;;;;5.60;4.50;;;36.30;53.10;;;;;;6248324;28;20045;-77
2023/09/12 11:45:34;;;;;;;5.18;4.30;;;36.60;52.50;;;;;;6249684;28;20042;-80
2023/09/12 11:48:36;;;;;;;8.15;5.47;;;37.00;51.80;;;;;;6249896;28;20037;-78
2023/09/12 11:51:47;;;;;;;6.53;5.75;;;37.00;51.50;;;;;;6247641;28;20069;-78
2023/09/12 11:54:50;;;;;;;6.50;4.63;;;37.10;50.80;;;;;;6246555;28;20056;-77
2023/09/12 11:57:52;;;;;;;5.65;3.92;;;37.50;50.60;;;;;;6247976;28;20053;-77
2023/09/12 12:00:55;;;;;;;4.88;4.28;;;37.70;49.10;;;;;;6247863;28;20630;-79
2023/09/12 12:03:57;;;;;;;5.07;3.95;;;37.90;48.40;;;;;;6247673;28;20540;-78
2023/09/12 12:06:58;;;;;;;8.07;4.65;;;38.10;47.50;;;;;;6248648;28;20064;-79
2023/09/12 12:10:03;;;;;;;5.78;4.97;;;38.20;47.50;;;;;;6247785;28;20057;-79
2023/09/12 12:13:05;;;;;;;6.00;3.58;;;38.40;46.70;;;;;;6248060;28;20053;-77
2023/09/12 12:16:16;;;;;;;5.30;4.18;;;38.30;46.50;;;;;;6248612;28;20048;-77
2023/09/12 12:19:18;;;;;;;4.93;4.15;;;38.10;45.80;;;;;;6243641;28;20501;-78
2023/09/12 12:22:20;;;;;;;4.72;3.33;;;38.00;46.00;;;;;;6246857;28;20045;-78
2023/09/12 12:25:24;;;;;;;8.93;5.03;;;38.30;45.80;;;;;;6242549;28;20537;-75
2023/09/12 12:28:26;;;;;;;10.15;4.43;;;38.40;45.20;;;;;;6247060;28;20057;-77
2023/09/12 12:31:28;;;;;;;4.97;4.53;;;38.20;45.10;;;;;;6247798;28;20096;-76
2023/09/12 12:34:30;;;;;;;7.68;4.63;;;37.80;44.90;;;;;;6247482;28;20046;-78
2023/09/12 12:37:32;;;;;;;7.13;4.30;;;37.60;45.30;;;;;;6248906;28;20048;-76
2023/09/12 12:40:40;;;;;;;5.63;3.65;;;37.80;45.50;;;;;;6249173;28;20556;-78
2023/09/12 12:43:42;;;;;;;6.68;4.40;;;38.10;45.30;;;;;;6248430;28;20045;-77
2023/09/12 12:46:51;;;;;;;6.13;3.85;;;38.30;45.30;;;;;;6247494;28;20539;-77
2023/09/12 12:49:53;;;;;;;5.07;3.67;;;38.60;44.80;;;;;;6247054;28;20045;-77
2023/09/12 12:52:55;;;;;;;3.90;3.35;;;38.80;44.20;;;;;;6247377;28;20045;-78
2023/09/12 12:56:00;;;;;;;5.85;3.72;;;39.00;43.60;;;;;;6247222;28;20053;-77
2023/09/12 12:59:06;;;;;;;7.68;3.35;;;39.20;43.20;;;;;;6241114;28;20056;-78
2023/09/12 13:02:08;;;;;;;5.07;3.63;;;39.40;43.20;;;;;;6246410;28;20528;-77
2023/09/12 13:05:22;;;;;;;4.40;3.97;;;39.70;42.90;;;;;;6245803;28;20110;-77
2023/09/12 13:08:25;;;;;;;4.50;3.60;;;39.90;42.40;;;;;;6246613;28;20045;-77
2023/09/12 13:11:28;;;;;;;5.13;3.63;;;40.00;42.50;;;;;;6246448;28;20048;-77
2023/09/12 13:14:31;;;;;;;7.85;5.22;;;39.90;42.10;;;;;;6246536;28;20053;-77
2023/09/12 13:17:33;;;;;;;7.68;3.47;;;40.00;42.40;;;;;;6246247;28;20046;-77
2023/09/12 13:20:35;;;;;;;3.72;3.33;;;40.20;42.60;;;;;;6245611;28;20045;-77
2023/09/12 13:23:38;;;;;;;5.07;4.13;;;40.30;42.10;;;;;;6246437;28;20121;-77
2023/09/12 13:26:41;;;;;;;6.10;3.45;;;40.40;41.60;;;;;;6245536;28;20061;-77
2023/09/12 13:29:43;;;;;;;6.05;3.88;;;40.30;41.40;;;;;;6245958;28;20057;-77
2023/09/12 13:32:46;;;;;;;3.65;3.28;;;39.90;41.30;;;;;;6245622;28;20038;-77
2023/09/12 13:35:49;;;;;;;6.45;3.30;;;39.50;41.70;;;;;;6238440;28;20438;-76
2023/09/12 13:38:51;;;;;;;4.47;4.07;;;39.40;41.80;;;;;;6244966;28;20053;-77
2023/09/12 13:41:57;;;;;;;5.43;4.50;;;39.40;41.90;;;;;;6245416;28;20422;-77
2023/09/12 13:44:59;;;;;;;8.05;4.28;;;39.10;42.00;;;;;;6245428;28;20124;-77
2023/09/12 13:48:01;;;;;;;8.05;3.85;;;39.20;42.40;;;;;;6245147;28;20526;-76
2023/09/12 13:51:03;;;;;;;4.05;3.63;;;39.50;41.60;;;;;;6244726;28;20053;-78
2023/09/12 13:54:06;;;;;;;7.35;5.20;;;39.60;41.20;;;;;;6245717;28;20060;-78
2023/09/12 13:57:09;;;;;;;6.55;3.50;;;39.40;40.80;;;;;;6244627;28;20421;-76
2023/09/12 14:00:12;;;;;;;6.07;3.80;;;39.30;40.70;;;;;;6245377;28;20395;-77
2023/09/12 14:03:13;;;;;;;6.72;4.65;;;39.20;40.50;;;;;;6245790;28;20054;-76
2023/09/12 14:06:15;;;;;;;4.60;3.92;;;39.10;41.00;;;;;;6245718;28;20394;-76
2023/09/12 14:09:17;;;;;;;5.05;4.22;;;39.10;40.30;;;;;;6245247;28;20056;-77
2023/09/12 14:12:20;;;;;;;9.00;5.93;;;39.10;40.10;;;;;;6239779;28;20056;-77
2023/09/12 14:15:22;;;;;;;4.50;3.33;;;39.20;40.20;;;;;;6240856;28;20061;-78
2023/09/12 14:18:24;;;;;;;4.78;3.72;;;39.20;40.20;;;;;;6248114;28;20057;-77
2023/09/12 14:21:25;;;;;;;9.40;3.97;;;38.90;39.70;;;;;;6250670;28;20046;-76
2023/09/12 14:24:27;;;;;;;4.50;4.05;;;38.70;38.70;;;;;;6251112;28;20397;-77
2023/09/12 14:27:30;;;;;;;5.07;4.25;;;38.90;39.00;;;;;;6251121;28;20501;-77
2023/09/12 14:30:35;;;;;;;7.05;3.78;;;39.30;38.40;;;;;;6250148;28;20405;-77
2023/09/12 14:33:37;;;;;;;4.75;3.80;;;39.70;38.50;;;;;;6251374;28;20037;-77
2023/09/12 14:36:38;;;;;;;5.18;3.97;;;40.00;38.50;;;;;;6251580;28;20045;-77
2023/09/12 14:39:40;;;;;;;4.70;3.72;;;40.00;37.90;;;;;;6250818;28;20633;-76
2023/09/12 14:42:43;;;;;;;3.67;3.20;;;40.10;37.70;;;;;;6249047;28;20053;-76
2023/09/12 14:45:45;;;;;;;5.70;3.97;;;40.30;37.60;;;;;;6248966;28;20042;-76
2023/09/12 14:48:47;;;;;;;3.63;3.33;;;40.30;37.60;;;;;;6247968;28;20042;-76
2023/09/12 14:51:48;;;;;;;4.07;3.08;;;39.80;38.00;;;;;;6249186;28;20049;-77
2023/09/12 14:54:50;;;;;;;6.70;4.35;;;39.40;37.80;;;;;;6250087;28;20049;-77
2023/09/12 14:57:54;;;;;;;4.47;3.75;;;38.80;38.80;;;;;;6250186;28;20410;-77
2023/09/12 15:00:58;;;;;;;7.43;3.17;;;38.10;38.40;;;;;;6257788;28;20045;-78
2023/09/12 15:04:00;;;;;;;3.95;3.38;;;37.50;38.60;;;;;;6249455;28;20049;-77
2023/09/12 15:07:03;;;;;;;4.53;3.47;;;36.80;38.90;;;;;;6249683;28;20049;-78
2023/09/12 15:10:05;;;;;;;8.88;4.07;;;36.30;39.20;;;;;;6248784;28;20045;-77
2023/09/12 15:13:09;;;;;;;6.53;3.55;;;35.90;39.50;;;;;;6247843;28;20056;-78
2023/09/12 15:16:11;;;;;;;5.07;2.60;;;35.50;39.60;;;;;;6248849;28;20041;-76
2023/09/12 15:19:13;;;;;;;3.22;2.92;;;35.00;39.80;;;;;;6248803;28;20403;-77
2023/09/12 15:22:15;;;;;;;5.70;3.28;;;34.50;40.20;;;;;;6248763;28;20540;-77
2023/09/12 15:25:17;;;;;;;4.68;3.75;;;34.30;40.70;;;;;;6248981;28;20525;-77
2023/09/12 15:28:20;;;;;;;3.83;3.30;;;33.90;41.30;;;;;;6248217;28;20555;-77
2023/09/12 15:31:21;;;;;;;5.68;3.40;;;33.70;41.60;;;;;;6248526;28;20417;-77
2023/09/12 15:34:23;;;;;;;3.80;3.42;;;33.50;41.40;;;;;;6250278;28;20048;-76
2023/09/12 15:37:25;;;;;;;4.13;3.35;;;33.30;41.60;;;;;;6248026;28;20052;-77
2023/09/12 15:40:27;;;;;;;6.95;3.13;;;33.10;41.90;;;;;;6247787;28;20053;-77
2023/09/12 15:43:30;;;;;;;4.18;3.72;;;33.00;42.20;;;;;;6248754;28;20057;-77
2023/09/12 15:46:32;;;;;;;6.97;4.03;;;32.80;42.30;;;;;;6247245;28;20042;-77
2023/09/12 15:49:33;;;;;;;5.35;4.00;;;32.60;42.60;;;;;;6247441;28;20402;-77